Maersk.batam — 9VHF2 — position and weather

sailwx.info

Track history (hours):
 
Tides and Currents Weather Stations Pressure Air Temp Water Temp Dewpoint Dewpoint Depression Visibility Wind Speed Wind Dir Waves Ship Positions

Maersk.batam

Last reported at 2018-Jun-15 15:15 UTC. Time now 2018-Jun-19 22:20 UTC.
Position N 37°24' W 029°32'.

Length 223 m; draft 9.6 m.

Type: Ship (hazmat cat D). MMSI: 565810000.

Date/timePositionNaut miles runAvg speedWind from/ knotsBaromVisibWave heightAir tempDewpointWater temp
2018-Jun-15 15:15N 37°24' W 029°32'313.8
2018-Jun-15 15:00N 37°23' W 029°28'713.7
2018-Jun-15 14:30N 37°23' W 029°19'713.9
2018-Jun-15 14:00N 37°22' W 029°11'714.4
2018-Jun-15 13:30N 37°22' W 029°02'714.0
2018-Jun-15 13:01N 37°21' W 028°53'713.6
2018-Jun-15 12:30N 37°20' W 028°44'713.9
2018-Jun-15 12:00N 37°20' W 028°36'713.7
2018-Jun-15 11:31N 37°19' W 028°27'713.7
2018-Jun-15 11:00N 37°19' W 028°18'714.0
2018-Jun-15 10:30N 37°18' W 028°10'714.0
2018-Jun-15 10:01N 37°18' W 028°01'713.5
2018-Jun-15 09:30N 37°17' W 027°52'713.5
2018-Jun-15 09:00N 37°17' W 027°44'713.9
2018-Jun-15 08:31N 37°17' W 027°35'813.7
2018-Jun-15 07:57N 37°16' W 027°26'613.4
2018-Jun-15 07:30N 37°15' W 027°18'713.6
2018-Jun-15 07:01N 37°15' W 027°10'713.4
2018-Jun-15 06:30N 37°14' W 027°01'713.4
2018-Jun-15 06:00N 37°14' W 026°53'714.1
2018-Jun-15 05:31N 37°14' W 026°44'714.6
2018-Jun-15 05:00N 37°13' W 026°35'714.0
2018-Jun-15 04:30N 37°12' W 026°26'713.6
2018-Jun-15 04:00N 37°12' W 026°18'713.6
2018-Jun-15 03:30N 37°11' W 026°09'714.1
2018-Jun-15 03:00N 37°10' W 026°00'713.4
2018-Jun-15 02:30N 37°10' W 025°52'713.3
2018-Jun-15 02:00N 37°10' W 025°44'713.5
2018-Jun-15 01:30N 37°09' W 025°35'713.7
2018-Jun-15 01:00N 37°09' W 025°27'713.4
2018-Jun-15 00:30N 37°08' W 025°18'713.4
2018-Jun-15 00:00N 37°08' W 025°10'713.6
2018-Jun-14 23:30N 37°07' W 025°01'714.2
2018-Jun-14 23:01N 37°06' W 024°53'713.6
2018-Jun-14 22:30N 37°06' W 024°44'713.5
2018-Jun-14 22:00N 37°06' W 024°36'714.0
2018-Jun-14 21:30N 37°05' W 024°27'714.0
2018-Jun-14 21:00N 37°04' W 024°18'713.9
2018-Jun-14 20:30N 37°03' W 024°09'714.0
2018-Jun-14 20:00N 37°03' W 024°01'713.6
2018-Jun-14 19:30N 37°02' W 023°52'714.0
2018-Jun-14 19:00N 37°01' W 023°44'813.9
2018-Jun-14 18:24N 37°00' W 023°33'  
2018-Jun-12 03:35N 35°58' W 005°37'111.2
2018-Jun-12 03:29N 35°58' W 005°36'510.7
2018-Jun-12 03:01N 36°00' W 005°30'510.6
2018-Jun-12 02:30N 36°02' W 005°24'612.4
2018-Jun-12 02:01N 36°08' W 005°24'2 2.5
2018-Jun-12 01:25N 36°09' W 005°26'0 0.0
2018-Jun-12 00:55N 36°09' W 005°26'0 0.0
2018-Jun-12 00:19N 36°09' W 005°26'0 0.0
2018-Jun-11 23:55N 36°09' W 005°26'0 0.0
2018-Jun-11 23:31N 36°09' W 005°26'0 0.0
2018-Jun-11 23:01N 36°09' W 005°26'0 0.0
2018-Jun-11 22:31N 36°09' W 005°26'0 0.0
2018-Jun-11 22:01N 36°09' W 005°26'0 0.0
2018-Jun-11 21:30N 36°09' W 005°26'0 0.0
2018-Jun-11 21:00N 36°09' W 005°26'0 0.0
2018-Jun-11 20:31N 36°09' W 005°26'0 0.1
2018-Jun-11 20:01N 36°09' W 005°26'0 0.0
2018-Jun-11 19:30N 36°09' W 005°26'0 0.0
2018-Jun-11 19:01N 36°09' W 005°26'0 0.0
2018-Jun-11 18:30N 36°09' W 005°26'0 0.0
2018-Jun-11 18:01N 36°09' W 005°26'0 0.0
2018-Jun-11 17:25N 36°09' W 005°26'0 0.0
2018-Jun-11 16:09N 36°09' W 005°26'0 0.0
2018-Jun-11 15:57N 36°09' W 005°26'0 0.0
2018-Jun-11 06:47N 36°09' W 005°26'0 0.0
2018-Jun-11 06:31N 36°09' W 005°26'0 0.0
2018-Jun-11 05:58N 36°09' W 005°26'0 0.0
2018-Jun-11 05:31N 36°09' W 005°26'0 0.0
2018-Jun-11 05:01N 36°09' W 005°26'2 3.6
2018-Jun-11 04:26N 36°08' W 005°24'3 7.0
2018-Jun-11 04:01N 36°05' W 005°22'611.6
2018-Jun-11 03:30N 36°05' W 005°15'30613.2
2018-Jun-10 04:18N 36°50' E 001°02'1012.0
2018-Jun-10 03:30N 36°51' E 001°14'1411.8
2018-Jun-10 02:20N 36°54' E 001°31'10212.7
2018-Jun-09 18:21N 37°13' E 003°36'514.3
2018-Jun-09 18:00N 37°13' E 003°42'714.2
2018-Jun-09 17:30N 37°14' E 003°51'814.4
2018-Jun-09 16:58N 37°15' E 004°01'715.0
2018-Jun-09 16:30N 37°15' E 004°09'815.0
2018-Jun-09 16:00N 37°16' E 004°19'1514.7
2018-Jun-09 15:00N 37°16' E 004°37'714.4
2018-Jun-09 14:30N 37°17' E 004°46'714.3
2018-Jun-09 13:59N 37°19' E 004°55'714.1
2018-Jun-09 13:30N 37°19' E 005°04'713.5
2018-Jun-09 13:00N 37°20' E 005°12'714.4
2018-Jun-09 12:30N 37°20' E 005°21'714.8
2018-Jun-09 12:01N 37°21' E 005°30'714.8
2018-Jun-09 11:30N 37°22' E 005°40'714.8
2018-Jun-09 11:00N 37°22' E 005°49'714.6
2018-Jun-09 10:30N 37°23' E 005°58'814.6
2018-Jun-09 09:56N 37°25' E 006°09'714.6
2018-Jun-09 09:29N 37°25' E 006°17'814.8
2018-Jun-09 08:58N 37°26' E 006°26'33913.5
2018-Jun-08 07:50N 36°43' E 013°28'412.9
2018-Jun-08 07:30N 36°41' E 013°33'1012.8
2018-Jun-08 06:45N 36°39' E 013°45'313.1
2018-Jun-08 06:30N 36°38' E 013°49'713.5
2018-Jun-08 06:00N 36°36' E 013°57'713.5
2018-Jun-08 05:30N 36°34' E 014°05'713.4
2018-Jun-08 05:00N 36°32' E 014°13'713.4
2018-Jun-08 04:30N 36°30' E 014°20'713.3
2018-Jun-08 04:00N 36°28' E 014°28'713.0
2018-Jun-08 03:30N 36°26' E 014°36'44311.8
2018-Jun-06 13:54N 37°01' E 023°47'411.0
2018-Jun-06 13:30N 37°04' E 023°51'611.4
2018-Jun-06 13:00N 37°08' E 023°56'711.5
2018-Jun-06 12:25N 37°14' E 024°01'511.7
2018-Jun-06 12:00N 37°17' E 024°05'611.6
2018-Jun-06 11:30N 37°21' E 024°10'711.8
2018-Jun-06 10:54N 37°27' E 024°16'  
Track history (hours):
 
Tides and Currents Weather Stations Pressure Air Temp Water Temp Dewpoint Dewpoint Depression Visibility Wind Speed Wind Dir Waves Ship Positions

Maersk.batam

Last reported at 2018-Jun-15 15:15 UTC. Time now 2018-Jun-19 22:20 UTC.
Position N 37°24' W 029°32'.

Length 223 m; draft 9.6 m.

Type: Ship (hazmat cat D). MMSI: 565810000.

Date/timePositionNaut miles runAvg speedWind from/ knotsBaromVisibWave heightAir tempDewpointWater temp
2018-Jun-15 15:15N 37°24' W 029°32'313.8
2018-Jun-15 15:00N 37°23' W 029°28'713.7
2018-Jun-15 14:30N 37°23' W 029°19'713.9
2018-Jun-15 14:00N 37°22' W 029°11'714.4
2018-Jun-15 13:30N 37°22' W 029°02'714.0
2018-Jun-15 13:01N 37°21' W 028°53'713.6
2018-Jun-15 12:30N 37°20' W 028°44'713.9
2018-Jun-15 12:00N 37°20' W 028°36'713.7
2018-Jun-15 11:31N 37°19' W 028°27'713.7
2018-Jun-15 11:00N 37°19' W 028°18'714.0
2018-Jun-15 10:30N 37°18' W 028°10'714.0
2018-Jun-15 10:01N 37°18' W 028°01'713.5
2018-Jun-15 09:30N 37°17' W 027°52'713.5
2018-Jun-15 09:00N 37°17' W 027°44'713.9
2018-Jun-15 08:31N 37°17' W 027°35'813.7
2018-Jun-15 07:57N 37°16' W 027°26'613.4
2018-Jun-15 07:30N 37°15' W 027°18'713.6
2018-Jun-15 07:01N 37°15' W 027°10'713.4
2018-Jun-15 06:30N 37°14' W 027°01'713.4
2018-Jun-15 06:00N 37°14' W 026°53'714.1
2018-Jun-15 05:31N 37°14' W 026°44'714.6
2018-Jun-15 05:00N 37°13' W 026°35'714.0
2018-Jun-15 04:30N 37°12' W 026°26'713.6
2018-Jun-15 04:00N 37°12' W 026°18'713.6
2018-Jun-15 03:30N 37°11' W 026°09'714.1
2018-Jun-15 03:00N 37°10' W 026°00'713.4
2018-Jun-15 02:30N 37°10' W 025°52'713.3
2018-Jun-15 02:00N 37°10' W 025°44'713.5
2018-Jun-15 01:30N 37°09' W 025°35'713.7
2018-Jun-15 01:00N 37°09' W 025°27'713.4
2018-Jun-15 00:30N 37°08' W 025°18'713.4
2018-Jun-15 00:00N 37°08' W 025°10'713.6
2018-Jun-14 23:30N 37°07' W 025°01'714.2
2018-Jun-14 23:01N 37°06' W 024°53'713.6
2018-Jun-14 22:30N 37°06' W 024°44'713.5
2018-Jun-14 22:00N 37°06' W 024°36'714.0
2018-Jun-14 21:30N 37°05' W 024°27'714.0
2018-Jun-14 21:00N 37°04' W 024°18'713.9
2018-Jun-14 20:30N 37°03' W 024°09'714.0
2018-Jun-14 20:00N 37°03' W 024°01'713.6
2018-Jun-14 19:30N 37°02' W 023°52'714.0
2018-Jun-14 19:00N 37°01' W 023°44'813.9
2018-Jun-14 18:24N 37°00' W 023°33'  
2018-Jun-12 03:35N 35°58' W 005°37'111.2
2018-Jun-12 03:29N 35°58' W 005°36'510.7
2018-Jun-12 03:01N 36°00' W 005°30'510.6
2018-Jun-12 02:30N 36°02' W 005°24'612.4
2018-Jun-12 02:01N 36°08' W 005°24'2 2.5
2018-Jun-12 01:25N 36°09' W 005°26'0 0.0
2018-Jun-12 00:55N 36°09' W 005°26'0 0.0
2018-Jun-12 00:19N 36°09' W 005°26'0 0.0
2018-Jun-11 23:55N 36°09' W 005°26'0 0.0
2018-Jun-11 23:31N 36°09' W 005°26'0 0.0
2018-Jun-11 23:01N 36°09' W 005°26'0 0.0
2018-Jun-11 22:31N 36°09' W 005°26'0 0.0
2018-Jun-11 22:01N 36°09' W 005°26'0 0.0
2018-Jun-11 21:30N 36°09' W 005°26'0 0.0
2018-Jun-11 21:00N 36°09' W 005°26'0 0.0
2018-Jun-11 20:31N 36°09' W 005°26'0 0.1
2018-Jun-11 20:01N 36°09' W 005°26'0 0.0
2018-Jun-11 19:30N 36°09' W 005°26'0 0.0
2018-Jun-11 19:01N 36°09' W 005°26'0 0.0
2018-Jun-11 18:30N 36°09' W 005°26'0 0.0
2018-Jun-11 18:01N 36°09' W 005°26'0 0.0
2018-Jun-11 17:25N 36°09' W 005°26'0 0.0
2018-Jun-11 16:09N 36°09' W 005°26'0 0.0
2018-Jun-11 15:57N 36°09' W 005°26'0 0.0
2018-Jun-11 06:47N 36°09' W 005°26'0 0.0
2018-Jun-11 06:31N 36°09' W 005°26'0 0.0
2018-Jun-11 05:58N 36°09' W 005°26'0 0.0
2018-Jun-11 05:31N 36°09' W 005°26'0 0.0
2018-Jun-11 05:01N 36°09' W 005°26'2 3.6
2018-Jun-11 04:26N 36°08' W 005°24'3 7.0
2018-Jun-11 04:01N 36°05' W 005°22'611.6
2018-Jun-11 03:30N 36°05' W 005°15'30613.2
2018-Jun-10 04:18N 36°50' E 001°02'1012.0
2018-Jun-10 03:30N 36°51' E 001°14'1411.8
2018-Jun-10 02:20N 36°54' E 001°31'10212.7
2018-Jun-09 18:21N 37°13' E 003°36'514.3
2018-Jun-09 18:00N 37°13' E 003°42'714.2
2018-Jun-09 17:30N 37°14' E 003°51'814.4
2018-Jun-09 16:58N 37°15' E 004°01'715.0
2018-Jun-09 16:30N 37°15' E 004°09'815.0
2018-Jun-09 16:00N 37°16' E 004°19'1514.7
2018-Jun-09 15:00N 37°16' E 004°37'714.4
2018-Jun-09 14:30N 37°17' E 004°46'714.3
2018-Jun-09 13:59N 37°19' E 004°55'714.1
2018-Jun-09 13:30N 37°19' E 005°04'713.5
2018-Jun-09 13:00N 37°20' E 005°12'714.4
2018-Jun-09 12:30N 37°20' E 005°21'714.8
2018-Jun-09 12:01N 37°21' E 005°30'714.8
2018-Jun-09 11:30N 37°22' E 005°40'714.8
2018-Jun-09 11:00N 37°22' E 005°49'714.6
2018-Jun-09 10:30N 37°23' E 005°58'814.6
2018-Jun-09 09:56N 37°25' E 006°09'714.6
2018-Jun-09 09:29N 37°25' E 006°17'814.8
2018-Jun-09 08:58N 37°26' E 006°26'33913.5
2018-Jun-08 07:50N 36°43' E 013°28'412.9
2018-Jun-08 07:30N 36°41' E 013°33'1012.8
2018-Jun-08 06:45N 36°39' E 013°45'313.1
2018-Jun-08 06:30N 36°38' E 013°49'713.5
2018-Jun-08 06:00N 36°36' E 013°57'713.5
2018-Jun-08 05:30N 36°34' E 014°05'713.4
2018-Jun-08 05:00N 36°32' E 014°13'713.4
2018-Jun-08 04:30N 36°30' E 014°20'713.3
2018-Jun-08 04:00N 36°28' E 014°28'713.0
2018-Jun-08 03:30N 36°26' E 014°36'44311.8
2018-Jun-06 13:54N 37°01' E 023°47'411.0
2018-Jun-06 13:30N 37°04' E 023°51'611.4
2018-Jun-06 13:00N 37°08' E 023°56'711.5
2018-Jun-06 12:25N 37°14' E 024°01'511.7
2018-Jun-06 12:00N 37°17' E 024°05'611.6
2018-Jun-06 11:30N 37°21' E 024°10'711.8
2018-Jun-06 10:54N 37°27' E 024°16'  

Dump ship's entire track history